• Join FlightAware (Why Join?)
  • Login
  • US Flag 
06:38AM EDT


 

Airport Tracker/Info


-or-


 

Live Flight TrackerFlight Track Log ✈ N362B ✈ 30-Apr-2012 ✈ KOTH - KSNA

Flight Track Log - Related Links

Times and Time Zones

All times are in EDT time to prevent confusion due to time zone crossing. See the N362B flight status page for this flight to view local times or setup timezone preferences in your user account.

Time Position Orientation Groundspeed Altitude Reporting Facility
EDT Latitude Longitude Course Direction KTS MPH feet Rate Location/Type
09:35PM 43.3191 -124.1720 344° North  Level FlightAware Approximate
09:36PM 43.2418 -124.1112 339° North  Level FlightAware Approximate
09:37PM 43.1602 -124.0611 338° Northwest  Level FlightAware Approximate
09:38PM 43.0819 -124.0014 337° Northwest  Level FlightAware Approximate
09:39PM 43.0075 -123.9336 335° Northwest  Level FlightAware Approximate
09:40PM 42.9291 -123.8744 334° Northwest  Level FlightAware Approximate
09:41PM 42.8511 -123.8140 334° Northwest  Level FlightAware Approximate
09:42PM 43.4617 -124.2281 157° South 208 239 6,900  Level Seattle Center
09:43PM 43.4114 -124.1981 149° Southeast 205 236 9,600 2,400 Climbing Seattle Center
09:44PM 43.3578 -124.1531 151° Southeast 220 253 11,800 2,160 Climbing Seattle Center
09:45PM 43.2892 -124.1017 150° Southeast 233 268 14,100 2,100 Climbing Seattle Center
09:46PM 43.2275 -124.0536 151° Southeast 249 287 16,100 1,800 Climbing Seattle Center
09:47PM 43.1711 -124.0108 151° Southeast 253 291 17,800 1,560 Climbing Seattle Center
09:48PM 43.1069 -123.9631 151° Southeast 260 299 19,300 1,500 Climbing Seattle Center
09:49PM 43.0414 -123.9136 152° Southeast 267 307 20,900 1,680 Climbing Seattle Center
09:50PM 42.9589 -123.8528 152° Southeast 278 320 22,800 1,620 Climbing Seattle Center
09:51PM 42.8900 -123.8028 151° Southeast 280 322 24,200 1,380 Climbing Seattle Center
09:52PM 42.8194 -123.7506 151° Southeast 286 329 25,700 1,320 Climbing Seattle Center
09:53PM 42.7464 -123.6956 150° Southeast 294 338 27,000 1,080 Climbing Seattle Center
09:54PM 42.6744 -123.6383 151° Southeast 306 352 28,000 1,020 Climbing Seattle Center
09:55PM 42.5969 -123.5806 152° Southeast 315 362 29,100 1,020 Climbing Seattle Center
09:56PM 42.5167 -123.5225 151° Southeast 324 373 30,200 960 Climbing Seattle Center
09:57PM 42.4369 -123.4631 152° Southeast 327 376 31,100 780 Climbing Seattle Center
09:58PM 42.3553 -123.4033 152° Southeast 332 382 31,900 900 Climbing Seattle Center
09:59PM 42.2558 -123.3308 152° Southeast 337 388 33,000 960 Climbing Seattle Center
10:00PM 42.1725 -123.2700 151° Southeast 340 391 33,900 780 Climbing Seattle Center
10:01PM 42.0917 -123.2108 152° Southeast 335 386 34,600 540 Climbing Seattle Center
10:02PM 42.0078 -123.1514 151° Southeast 339 390 35,000 360 Climbing Seattle Center
10:03PM 41.9225 -123.0892 152° Southeast 347 399 35,400 360 Climbing Seattle Center
10:04PM 41.8369 -123.0278 152° Southeast 349 402 35,800 300 Climbing Seattle Center
10:05PM 41.7494 -122.9647 152° Southeast 354 407 36,100 300 Climbing Seattle Center
10:06PM 41.6606 -122.9019 152° Southeast 359 413 36,500 420 Climbing Seattle Center
10:07PM 41.5725 -122.8389 153° Southeast 360 414 37,000 240 Climbing Seattle Center
10:08PM 41.4831 -122.7792 161° South 361 415 37,000  Level Seattle Center
10:09PM 41.3753 -122.7292 160° South 366 421 37,000  Level Seattle Center
10:10PM 41.2792 -122.6814 160° South 367 422 37,000  Level Seattle Center
10:11PM 41.1822 -122.6336 159° South 370 426 37,000  Level Seattle Center
10:12PM 41.0856 -122.5850 159° South 370 426 37,000  Level Seattle Center
10:13PM 40.9886 -122.5369 159° South 371 427 37,000  Level Seattle Center
10:14PM 40.8708 -122.4783 160° South 374 430 37,000  Level Seattle Center
10:15PM 40.7728 -122.4306 159° South 374 430 37,000  Level Seattle Center
10:16PM 40.6756 -122.3825 160° South 374 430 37,000  Level Seattle Center
10:18PM 40.5772 -122.3344 159° South 374 430 37,000  Level Seattle Center
10:19PM 40.4806 -122.2861 159° South 373 429 37,000  Level Seattle Center
10:20PM 40.3825 -122.2378 157° South 373 429 37,000  Level Seattle Center
10:21PM 40.2633 -122.1731 159° South 367 422 37,000  Level Oakland Center
10:22PM 40.1617 -122.1225 161° South 373 429 37,000  Level Oakland Center
10:23PM 40.0600 -122.0772 162° South 384 442 37,000  Level Oakland Center
10:24PM 39.9622 -122.0353 159° South 384 442 37,000  Level Oakland Center
10:25PM 39.8669 -121.9878 160° South 379 436 37,000  Level Oakland Center
10:26PM 39.7672 -121.9403 160° South 379 436 37,000  Level Oakland Center
10:27PM 39.6675 -121.8933 161° South 379 436 37,000  Level Oakland Center
10:28PM 39.5697 -121.8489 162° South 379 436 37,000  Level Oakland Center
10:29PM 39.4847 -121.8128 160° South 373 429 37,000  Level Oakland Center
10:30PM 39.3847 -121.7658 160° South 373 429 37,000  Level Oakland Center
10:31PM 39.2892 -121.7219 159° South 373 429 37,000  Level Oakland Center
10:32PM 39.1914 -121.6728 161° South 378 435 37,000  Level Oakland Center
10:33PM 39.0939 -121.6289 160° South 378 435 37,000  Level Oakland Center
10:34PM 38.9939 -121.5825 161° South 378 435 37,000  Level Oakland Center
10:35PM 38.8983 -121.5392 160° South 373 429 37,000  Level Oakland Center
10:36PM 38.8003 -121.4931 161° South 373 429 37,000  Level Oakland Center
10:37PM 38.7047 -121.4497 158° South 368 423 37,000  Level Oakland Center
10:38PM 38.6006 -121.3958 160° South 384 442 37,000  Level Oakland Center
10:39PM 38.5028 -121.3503 163° South 384 442 37,000  Level Oakland Center
10:40PM 38.3964 -121.3100 159° South 389 448 37,000  Level Oakland Center
10:41PM 38.3006 -121.2619 160° South 389 448 37,000  Level Oakland Center
10:42PM 38.2047 -121.2167 161° South 382 440 37,000  Level Oakland Center
10:43PM 38.1069 -121.1742 160° South 376 433 37,000  Level Oakland Center
10:44PM 38.0111 -121.1289 160° South 371 427 37,000  Level Oakland Center
10:45PM 37.9108 -121.0814 161° South 371 427 37,000  Level Oakland Center
10:46PM 37.8150 -121.0392 161° South 371 427 37,000  Level Oakland Center
10:47PM 37.7150 -120.9944 160° South 371 427 37,000  Level Oakland Center
10:48PM 37.6169 -120.9500 160° South 371 427 37,000  Level Oakland Center
10:49PM 37.5189 -120.9056 159° South 371 427 37,000  Level Oakland Center
10:50PM 37.4208 -120.8583 162° South 371 427 37,000  Level Oakland Center
10:51PM 37.3206 -120.8169 160° South 371 427 37,000  Level Oakland Center
10:52PM 37.2225 -120.7728 160° South 371 427 37,000  Level Oakland Center
10:53PM 37.1242 -120.7286 160° South 371 427 37,000  Level Oakland Center
10:54PM 37.0261 -120.6847 159° South 371 427 37,000  Level Oakland Center
10:55PM 36.9281 -120.6383 163° South 371 427 37,000  Level Oakland Center
10:56PM 36.8278 -120.6000 163° South 371 427 37,000  Level Oakland Center
10:57PM 36.7339 -120.5642 162° South 365 420 37,000  Level Oakland Center
10:58PM 36.6356 -120.5233 162° South 365 420 37,000  Level Oakland Center
10:59PM 36.5372 -120.4825 160° South 365 420 37,000  Level Oakland Center
11:00PM 36.4392 -120.4392 161° South 370 426 37,000  Level Oakland Center
11:01PM 36.3389 -120.3961 161° South 370 426 37,000  Level Oakland Center
11:02PM 36.2425 -120.3556 161° South 370 426 37,000  Level Oakland Center
11:03PM 36.1444 -120.3128 159° South 370 426 37,000  Level Oakland Center
11:03PM 36.0722 -120.2786 160° South 369 425 37,000  Level Los Angeles Center
11:04PM 35.9736 -120.2350 161° South 381 438 37,000  Level Los Angeles Center
11:05PM 35.8747 -120.1939 160° South 381 438 37,000  Level Los Angeles Center
11:06PM 35.7781 -120.1508 161° South 376 433 37,000  Level Los Angeles Center
11:07PM 35.7000 -120.1186 161° South 376 433 37,000  Level Los Angeles Center
11:08PM 35.5928 -120.0725 160° South 376 433 37,000  Level Los Angeles Center
11:09PM 35.4961 -120.0297 148° Southeast 376 433 37,000  Level Los Angeles Center
11:10PM 35.4086 -119.9617 146° Southeast 376 433 37,000  Level Los Angeles Center
11:11PM 35.3272 -119.8942 145° Southeast 369 425 37,000  Level Los Angeles Center
11:12PM 35.2419 -119.8217 145° Southeast 369 425 37,000  Level Los Angeles Center
11:13PM 35.1586 -119.7492 147° Southeast 369 425 37,000  Level Los Angeles Center
11:14PM 35.0728 -119.6819 145° Southeast 369 425 37,000  Level Los Angeles Center
11:15PM 34.9894 -119.6100 145° Southeast 369 425 37,000  Level Los Angeles Center
11:16PM 34.9078 -119.5408 146° Southeast 369 425 37,000  Level Los Angeles Center
11:17PM 34.8222 -119.4714 146° Southeast 369 425 37,000  Level Los Angeles Center
11:18PM 34.7364 -119.3997 146° Southeast 369 425 37,000 -360 Level Los Angeles Center
11:19PM 34.6506 -119.3306 149° Southeast 369 425 36,300 -1,740 Descending Los Angeles Center
11:20PM 34.5503 -119.2561 146° Southeast 375 432 33,500 -2,580 Descending Los Angeles Center
11:21PM 34.4725 -119.1928 145° Southeast 375 432 31,200 -2,520 Descending Los Angeles Center
11:22PM 34.3931 -119.1244 147° Southeast 374 430 28,600 -2,580 Descending Los Angeles Center
11:23PM 34.3150 -119.0639 145° Southeast 355 409 26,100 -2,400 Descending Los Angeles Center
11:24PM 34.2414 -119.0008 145° Southeast 333 383 23,800 -2,340 Descending Los Angeles Center
11:25PM 34.1678 -118.9381 146° Southeast 328 377 21,500 -2,280 Descending Los Angeles Center
11:26PM 34.0942 -118.8781 146° Southeast 323 372 19,300 -2,100 Descending Los Angeles Center
11:27PM 34.0222 -118.8206 146° Southeast 323 372 17,300 -2,100 Descending Los Angeles Center
11:28PM 33.9464 -118.7581 150° Southeast 323 372 15,200 -1,680 Descending Los Angeles Center
11:29PM 33.8744 -118.7083 162° South 317 365 14,000 -600 Descending Los Angeles Center
11:30PM 33.7958 -118.6783 165° South 303 349 14,000 -180 Level Los Angeles Center
11:31PM 33.7128 -118.6508 162° South 303 349 13,700 -660 Descending Los Angeles Center
11:32PM 33.6281 -118.6183 154° Southeast 308 354 12,700 -1,020 Descending Los Angeles Center
11:33PM 33.5517 -118.5739 144° Southeast 308 354 11,700 -1,020 Descending Los Angeles Center
11:34PM 33.4861 -118.5172 136° Southeast 302 348 10,700 -1,020 Descending Los Angeles Center
11:35PM 33.4289 -118.4508 101° East 297 342 9,700 -1,020 Descending Los Angeles Center
11:36PM 33.4139 -118.3583 90° East 265 305 8,700 -1,080 Descending Los Angeles Center
11:37PM 33.4133 -118.2711 43° Northeast 251 289 7,600 -1,080 Descending Los Angeles Center
11:38PM 33.4708 -118.2078 46° Northeast 234 269 6,600 -1,020 Descending Los Angeles Center
11:39PM 33.5197 -118.1469 44° Northeast 240 276 5,600 -840 Descending Los Angeles Center
11:40PM 33.5625 -118.0981 47° Northeast 240 276 5,000 -300 Descending Los Angeles Center
11:41PM 33.6050 -118.0442 41° Northeast 230 265 5,000  Level Los Angeles Center
11:42PM 33.6517 -117.9953 35° Northeast 225 259 5,000  Level Los Angeles Center
11:43PM 33.7003 -117.9539 34° Northeast 214 246 5,000  Level Los Angeles Center
11:44PM 33.7425 -117.9197 27° Northeast 202 232 5,000  Level Los Angeles Center
11:45PM 33.7889 -117.8908 29° Northeast 184 212 5,000 -300 Level Los Angeles Center
11:46PM 33.8500 -117.8500 90° East 184 212 4,400 -600 Descending Southern California TRACON
11:47PM 33.8500 -117.8167 112° Southeast 175 201 3,800 -720 Descending Southern California TRACON
11:48PM 33.8333 -117.7667 220° Southwest 158 182 3,000 -600 Descending Southern California TRACON
11:49PM 33.8000 -117.8000 203° Southwest 152 175 2,600 -600 Descending Southern California TRACON
11:50PM 33.7667 -117.8167 203° Southwest 137 158 1,800 -840 Descending Southern California TRACON
11:51PM 33.7333 -117.8333 203° Southwest 112 129 1,100 -780 Descending Southern California TRACON